createdAt,value
2022-12-16T00:01:48.302Z,2.99
2022-12-16T00:04:19.591Z,4.21
2022-12-16T00:06:50.265Z,4.32
2022-12-16T00:09:22.468Z,3.11
2022-12-16T00:11:53.524Z,2.54
2022-12-16T00:14:25.587Z,3.58
2022-12-16T00:16:56.323Z,4.02
2022-12-16T00:19:27.143Z,4.24
2022-12-16T00:21:58.027Z,4.81
2022-12-16T00:24:31.490Z,3.54
2022-12-16T00:27:02.219Z,2.51
2022-12-16T00:29:32.897Z,3.34
2022-12-16T00:32:03.518Z,4.10
2022-12-16T00:34:34.726Z,4.66
2022-12-16T00:37:05.496Z,4.30
2022-12-16T00:39:36.297Z,3.05
2022-12-16T00:42:07.537Z,2.62
2022-12-16T00:44:38.784Z,3.61
2022-12-16T00:47:09.673Z,4.29
2022-12-16T00:49:40.199Z,4.76
2022-12-16T00:52:12.017Z,4.44
2022-12-16T00:54:42.538Z,3.02
2022-12-16T00:57:13.377Z,2.70
2022-12-16T00:59:44.184Z,3.52
2022-12-16T01:02:15.280Z,3.98
2022-12-16T01:04:45.978Z,4.57
2022-12-16T01:07:16.625Z,4.99
2022-12-16T01:09:47.270Z,4.54
2022-12-16T01:12:18.121Z,3.20
2022-12-16T01:14:50.239Z,2.61
2022-12-16T01:17:21.105Z,3.39
2022-12-16T01:19:51.711Z,4.02
2022-12-16T01:22:23.670Z,4.57
2022-12-16T01:24:54.586Z,4.42
2022-12-16T01:27:26.063Z,2.95
2022-12-16T01:29:57.418Z,2.80
2022-12-16T01:32:28.455Z,3.83
2022-12-16T01:34:59.186Z,4.48
2022-12-16T01:37:30.063Z,4.80
2022-12-16T01:40:00.615Z,4.47
2022-12-16T01:42:33.730Z,3.23
2022-12-16T01:45:17.656Z,2.25
2022-12-16T01:47:48.411Z,2.99
2022-12-16T01:50:19.823Z,3.63
2022-12-16T01:52:52.681Z,4.15
2022-12-16T01:55:25.219Z,3.98
2022-12-16T01:57:57.533Z,4.28
2022-12-16T02:00:28.017Z,4.52
2022-12-16T02:02:59.474Z,4.60
2022-12-16T02:05:30.209Z,3.36
2022-12-16T02:08:03.533Z,2.64
2022-12-16T02:10:39.241Z,3.43
2022-12-16T02:13:18.456Z,4.07
2022-12-16T02:15:53.381Z,4.43
2022-12-16T02:18:31.063Z,4.49
2022-12-16T02:21:13.548Z,4.70
2022-12-16T02:24:14.090Z,3.36
2022-12-16T02:26:53.420Z,2.88
2022-12-16T02:29:33.258Z,3.74
2022-12-16T02:32:10.096Z,4.29
2022-12-16T02:34:45.719Z,4.69
2022-12-16T02:37:19.609Z,4.86
2022-12-16T02:39:54.292Z,4.89
2022-12-16T02:42:28.664Z,3.65
2022-12-16T02:45:02.859Z,2.74
2022-12-16T02:47:33.889Z,3.56
2022-12-16T02:50:05.607Z,4.37
2022-12-16T02:52:36.281Z,4.70
2022-12-16T02:55:09.353Z,4.86
2022-12-16T02:57:48.193Z,5.08
2022-12-16T03:00:20.829Z,3.66
2022-12-16T03:02:55.041Z,2.82
2022-12-16T03:05:27.662Z,3.58
2022-12-16T03:07:59.399Z,4.09
2022-12-16T03:10:32.112Z,4.49
2022-12-16T03:13:03.834Z,4.67
2022-12-16T03:15:36.335Z,5.06
2022-12-16T03:18:09.372Z,3.69
2022-12-16T03:20:42.627Z,2.79
2022-12-16T03:23:15.362Z,3.46
2022-12-16T03:25:48.239Z,4.11
2022-12-16T03:28:26.974Z,4.49
2022-12-16T03:31:00.305Z,4.96
2022-12-16T03:33:34.422Z,4.03
2022-12-16T03:36:08.833Z,2.85
2022-12-16T03:38:39.629Z,3.56
2022-12-16T03:41:10.615Z,4.26
2022-12-16T03:43:41.232Z,4.71
2022-12-16T03:46:12.629Z,4.84
2022-12-16T03:48:48.007Z,3.72
2022-12-16T03:51:18.858Z,2.80
2022-12-16T03:53:49.298Z,3.54
2022-12-16T03:56:20.775Z,4.08
2022-12-16T03:58:51.307Z,4.46
2022-12-16T04:01:23.712Z,4.88
2022-12-16T04:03:54.864Z,4.48
2022-12-16T04:06:25.968Z,3.20
2022-12-16T04:08:57.204Z,2.76
2022-12-16T04:11:45.511Z,3.34
2022-12-16T04:14:33.806Z,3.94
2022-12-16T04:17:22.120Z,4.43
2022-12-16T04:20:10.413Z,5.05
2022-12-16T04:22:59.549Z,5.25
2022-12-16T04:25:31.979Z,4.48
2022-12-16T04:28:03.064Z,3.07
2022-12-16T04:30:35.233Z,3.24
2022-12-16T04:33:26.723Z,4.16
2022-12-16T04:36:15.166Z,4.81
2022-12-16T04:39:03.646Z,5.28
2022-12-16T04:41:51.898Z,5.46
2022-12-16T04:44:40.648Z,4.29
2022-12-16T04:47:29.145Z,2.93
2022-12-16T04:50:17.651Z,3.47
2022-12-16T04:53:09.117Z,4.44
2022-12-16T04:56:02.234Z,4.93
2022-12-16T04:58:57.836Z,5.43
2022-12-16T05:02:01.031Z,5.36
2022-12-16T05:04:50.305Z,3.66
2022-12-16T05:07:38.912Z,3.18
2022-12-16T05:10:27.656Z,4.18
2022-12-16T05:13:16.812Z,5.14
2022-12-16T05:16:05.149Z,5.64
2022-12-16T05:18:53.720Z,4.57
2022-12-16T05:21:42.137Z,3.18
2022-12-16T05:24:30.723Z,3.76
2022-12-16T05:27:19.116Z,4.55
2022-12-16T05:30:07.565Z,4.72
2022-12-16T05:32:56.115Z,5.26
2022-12-16T05:35:44.665Z,5.47
2022-12-16T05:38:41.201Z,5.72
2022-12-16T05:41:29.629Z,4.19
2022-12-16T05:44:17.561Z,3.49
2022-12-16T05:47:06.524Z,4.20
2022-12-16T05:49:55.095Z,4.95
2022-12-16T05:52:43.455Z,5.48
2022-12-16T05:55:34.079Z,5.73
2022-12-16T05:58:25.363Z,5.88
2022-12-16T06:01:13.722Z,5.91
2022-12-16T06:04:02.306Z,4.82
2022-12-16T06:06:50.262Z,3.91
2022-12-16T06:09:39.457Z,4.71
2022-12-16T06:12:27.595Z,5.43
2022-12-16T06:15:16.118Z,6.02
2022-12-16T06:18:06.240Z,6.29
2022-12-16T06:20:54.725Z,6.40
2022-12-16T06:23:43.956Z,5.08
2022-12-16T06:26:32.919Z,3.57
2022-12-16T06:29:20.997Z,3.70
2022-12-16T06:32:09.406Z,4.73
2022-12-16T06:34:57.749Z,5.50
2022-12-16T06:37:45.829Z,6.14
2022-12-16T06:40:42.638Z,6.19
2022-12-16T06:43:31.211Z,6.29
2022-12-16T06:46:20.011Z,6.33
2022-12-16T06:49:08.394Z,5.21
2022-12-16T06:51:56.835Z,4.10
2022-12-16T06:54:45.244Z,4.90
2022-12-16T06:57:33.731Z,5.42
2022-12-16T07:00:22.804Z,5.76
2022-12-16T07:03:11.062Z,5.94
2022-12-16T07:05:59.532Z,5.96
2022-12-16T07:08:47.695Z,6.49
2022-12-16T07:11:35.874Z,6.07
2022-12-16T07:14:24.316Z,4.67
2022-12-16T07:17:17.084Z,4.46
2022-12-16T07:20:05.799Z,5.45
2022-12-16T07:23:02.260Z,6.08
2022-12-16T07:26:02.729Z,6.46
2022-12-16T07:28:51.663Z,6.68
2022-12-16T07:31:40.664Z,6.33
2022-12-16T07:34:31.749Z,6.56
2022-12-16T07:37:22.295Z,5.34
2022-12-16T07:40:10.986Z,4.48
2022-12-16T07:43:01.603Z,5.47
2022-12-16T07:45:50.419Z,6.05
2022-12-16T07:48:41.413Z,6.51
2022-12-16T07:51:30.090Z,5.49
2022-12-16T07:54:17.906Z,4.52
2022-12-16T07:57:05.859Z,5.27
2022-12-16T07:59:54.056Z,6.08
2022-12-16T08:02:43.376Z,6.12
2022-12-16T08:05:37.243Z,6.17
2022-12-16T08:08:26.105Z,6.48
2022-12-16T08:11:11.374Z,6.62
2022-12-16T08:14:00.748Z,5.93
2022-12-16T08:16:48.981Z,4.47
2022-12-16T08:19:37.431Z,4.76
2022-12-16T08:22:26.392Z,5.58
2022-12-16T08:25:14.776Z,6.04
2022-12-16T08:28:03.319Z,6.23
2022-12-16T08:30:51.290Z,6.78
2022-12-16T08:33:41.010Z,6.75
2022-12-16T08:36:29.259Z,5.01
2022-12-16T08:39:17.906Z,4.31
2022-12-16T08:42:06.603Z,5.11
2022-12-16T08:44:55.720Z,5.96
2022-12-16T08:47:45.433Z,6.44
2022-12-16T08:50:33.353Z,6.55
2022-12-16T08:53:21.762Z,6.76
2022-12-16T08:56:09.878Z,7.17
2022-12-16T08:59:06.664Z,6.66
2022-12-16T09:01:55.421Z,5.06
2022-12-16T09:04:44.180Z,5.15
2022-12-16T09:07:32.732Z,6.29
2022-12-16T09:10:21.078Z,6.76
2022-12-16T09:13:09.326Z,6.95
2022-12-16T09:15:57.466Z,7.11
2022-12-16T09:18:46.279Z,7.53
2022-12-16T09:21:34.664Z,6.94
2022-12-16T09:24:23.392Z,5.37
2022-12-16T09:27:11.671Z,4.64
2022-12-16T09:30:00.149Z,5.50
2022-12-16T09:32:48.334Z,6.45
2022-12-16T09:35:37.013Z,6.98
2022-12-16T09:38:25.196Z,7.40
2022-12-16T09:41:13.512Z,6.85
2022-12-16T09:44:07.068Z,5.31
2022-12-16T09:47:02.178Z,5.24
2022-12-16T09:50:00.865Z,6.89
2022-12-16T09:52:51.463Z,6.41
2022-12-16T09:55:42.372Z,4.70
2022-12-16T09:58:31.425Z,5.20
2022-12-16T10:01:20.765Z,6.27
2022-12-16T10:04:09.710Z,6.99
2022-12-16T10:07:02.026Z,7.19
2022-12-16T10:09:53.401Z,5.60
2022-12-16T10:12:45.350Z,4.93
2022-12-16T10:15:38.696Z,6.09
2022-12-16T10:18:35.644Z,7.12
2022-12-16T10:21:25.335Z,6.79
2022-12-16T10:24:17.164Z,5.38
2022-12-16T10:27:12.156Z,4.91
2022-12-16T10:30:01.475Z,6.16
2022-12-16T10:32:52.225Z,6.99
2022-12-16T10:35:57.261Z,5.57
2022-12-16T10:38:49.301Z,4.76
2022-12-16T10:41:38.359Z,6.16
2022-12-16T10:44:33.069Z,6.97
2022-12-16T10:47:22.247Z,7.36
2022-12-16T10:50:14.706Z,6.25
2022-12-16T10:53:12.731Z,5.14
2022-12-16T10:56:08.406Z,6.18
2022-12-16T10:59:04.680Z,7.10
2022-12-16T11:01:52.980Z,6.92
2022-12-16T11:04:48.594Z,5.45
2022-12-16T11:07:44.376Z,5.10
2022-12-16T11:10:47.290Z,6.11
2022-12-16T11:13:37.575Z,6.89
2022-12-16T11:16:29.077Z,6.82
2022-12-16T11:19:17.358Z,5.32
2022-12-16T11:22:05.890Z,4.84
2022-12-16T11:24:54.890Z,6.06
2022-12-16T11:27:43.792Z,7.01
2022-12-16T11:30:39.743Z,7.05
2022-12-16T11:33:33.415Z,5.51
2022-12-16T11:36:25.832Z,4.82
2022-12-16T11:39:14.617Z,5.93
2022-12-16T11:42:04.966Z,7.08
2022-12-16T11:44:54.968Z,6.89
2022-12-16T11:47:49.640Z,5.24
2022-12-16T11:50:39.183Z,5.63
2022-12-16T11:53:33.236Z,6.46
2022-12-16T11:56:18.296Z,7.18
2022-12-16T11:59:06.881Z,6.49
2022-12-16T12:01:58.327Z,4.98
2022-12-16T12:04:46.550Z,4.67
2022-12-16T12:07:51.964Z,6.10
2022-12-16T12:10:49.725Z,7.19
2022-12-16T12:13:46.735Z,6.41
2022-12-16T12:16:36.449Z,5.00
2022-12-16T12:19:27.728Z,5.23
2022-12-16T12:22:18.538Z,6.52
2022-12-16T12:25:09.754Z,7.55
2022-12-16T12:28:01.709Z,6.73
2022-12-16T12:30:52.740Z,5.29
2022-12-16T12:33:51.258Z,5.89
2022-12-16T12:36:41.257Z,6.95
2022-12-16T12:39:36.470Z,7.35
2022-12-16T12:42:31.594Z,5.91
2022-12-16T12:45:30.460Z,5.31
2022-12-16T12:48:23.415Z,6.24
2022-12-16T12:51:15.900Z,7.15
2022-12-16T12:54:08.550Z,7.25
2022-12-16T12:57:01.498Z,5.71
2022-12-16T12:59:55.933Z,4.90
2022-12-16T13:02:47.436Z,6.08
2022-12-16T13:05:36.568Z,7.07
2022-12-16T13:08:53.903Z,7.10
2022-12-16T13:11:42.610Z,5.35
2022-12-16T13:14:46.161Z,4.68
2022-12-16T13:17:46.511Z,6.07
2022-12-16T13:20:50.655Z,7.14
2022-12-16T13:23:47.630Z,7.13
2022-12-16T13:26:36.770Z,5.61
2022-12-16T13:29:45.613Z,5.44
2022-12-16T13:32:37.992Z,7.08
2022-12-16T13:35:34.986Z,6.56
2022-12-16T13:38:24.487Z,5.34
2022-12-16T13:41:14.575Z,6.63
2022-12-16T13:44:06.593Z,7.20
2022-12-16T13:47:02.510Z,5.17
2022-12-16T13:50:01.142Z,5.07
2022-12-16T13:52:54.913Z,6.46
2022-12-16T13:55:46.316Z,7.20
2022-12-16T13:58:39.742Z,6.85
2022-12-16T14:01:46.295Z,5.21
2022-12-16T14:04:39.017Z,5.80
2022-12-16T14:07:27.103Z,6.55
2022-12-16T14:10:15.767Z,7.09
2022-12-16T14:13:10.839Z,7.24
2022-12-16T14:16:07.173Z,5.70
2022-12-16T14:19:00.158Z,5.00
2022-12-16T14:21:52.380Z,6.29
2022-12-16T14:24:42.678Z,7.09
2022-12-16T14:27:33.743Z,5.80
2022-12-16T14:30:33.399Z,4.96
2022-12-16T14:33:33.636Z,6.04
2022-12-16T14:36:22.170Z,6.89
2022-12-16T14:39:11.133Z,5.65
2022-12-16T14:41:59.370Z,5.35
2022-12-16T14:44:47.826Z,6.40
2022-12-16T14:47:37.130Z,6.36
2022-12-16T14:50:37.019Z,4.80
2022-12-16T14:53:34.973Z,5.56
2022-12-16T14:56:36.695Z,6.63
2022-12-16T14:59:30.222Z,5.85
2022-12-16T15:02:22.927Z,4.56
2022-12-16T15:05:11.221Z,5.47
2022-12-16T15:07:59.664Z,6.16
2022-12-16T15:10:47.910Z,6.91
2022-12-16T15:13:37.743Z,6.57
2022-12-16T15:16:26.505Z,5.02
2022-12-16T15:19:17.572Z,5.14
2022-12-16T15:22:11.781Z,6.04
2022-12-16T15:25:00.136Z,6.69
2022-12-16T15:27:53.976Z,6.99
2022-12-16T15:30:53.324Z,5.36
2022-12-16T15:33:42.323Z,4.63
2022-12-16T15:36:42.538Z,5.62
2022-12-16T15:39:49.726Z,6.49
2022-12-16T15:42:40.247Z,6.47
2022-12-16T15:45:37.406Z,4.78
2022-12-16T15:48:30.851Z,4.95
2022-12-16T15:51:18.437Z,6.19
2022-12-16T15:54:20.236Z,6.81
2022-12-16T15:57:08.364Z,6.40
2022-12-16T16:00:10.225Z,4.76
2022-12-16T16:03:05.146Z,4.79
2022-12-16T16:05:55.365Z,6.05
2022-12-16T16:08:43.561Z,6.64
2022-12-16T16:11:32.020Z,7.09
2022-12-16T16:14:20.139Z,6.29
2022-12-16T16:17:08.691Z,4.77
2022-12-16T16:20:02.976Z,5.42
2022-12-16T16:22:51.997Z,6.32
2022-12-16T16:25:40.215Z,6.68
2022-12-16T16:28:28.628Z,5.20
2022-12-16T16:31:17.032Z,4.59
2022-12-16T16:34:05.393Z,5.61
2022-12-16T16:36:53.643Z,6.13
2022-12-16T16:39:41.913Z,4.95
2022-12-16T16:42:29.948Z,4.34
2022-12-16T16:45:18.193Z,5.51
2022-12-16T16:48:06.051Z,6.02
2022-12-16T16:50:54.925Z,6.01
2022-12-16T16:53:43.443Z,4.40
2022-12-16T16:56:31.689Z,4.79
2022-12-16T16:59:20.078Z,5.86
2022-12-16T17:02:08.249Z,5.14
2022-12-16T17:04:56.229Z,4.08
2022-12-16T17:07:48.095Z,5.04
2022-12-16T17:10:40.192Z,5.98
2022-12-16T17:13:28.140Z,6.05
2022-12-16T17:16:16.450Z,4.66
2022-12-16T17:19:05.002Z,3.90
2022-12-16T17:21:54.672Z,5.17
2022-12-16T17:24:47.611Z,6.12
2022-12-16T17:27:38.539Z,5.75
2022-12-16T17:30:44.883Z,4.25
2022-12-16T17:33:36.214Z,4.74
2022-12-16T17:36:30.064Z,5.96
2022-12-16T17:39:20.803Z,5.79
2022-12-16T17:42:09.288Z,4.22
2022-12-16T17:44:57.982Z,4.36
2022-12-16T17:47:46.144Z,5.53
2022-12-16T17:50:34.730Z,6.45
2022-12-16T17:53:25.193Z,5.75
2022-12-16T17:56:13.729Z,4.24
2022-12-16T17:59:05.438Z,4.90
2022-12-16T18:01:54.166Z,5.86
2022-12-16T18:04:42.348Z,6.48
2022-12-16T18:07:31.025Z,5.54
2022-12-16T18:10:19.343Z,3.97
2022-12-16T18:13:07.556Z,4.52
2022-12-16T18:15:55.995Z,5.69
2022-12-16T18:18:46.326Z,6.10
2022-12-16T18:21:34.556Z,4.50
2022-12-16T18:24:25.940Z,4.52
2022-12-16T18:27:14.453Z,5.79
2022-12-16T18:30:02.877Z,6.39
2022-12-16T18:32:51.283Z,5.58
2022-12-16T18:35:39.842Z,4.11
2022-12-16T18:38:27.994Z,4.41
2022-12-16T18:41:21.570Z,5.45
2022-12-16T18:44:10.124Z,6.34
2022-12-16T18:46:59.198Z,6.74
2022-12-16T18:49:47.677Z,6.40
2022-12-16T18:52:36.284Z,4.75
2022-12-16T18:55:25.532Z,3.95
2022-12-16T18:58:34.811Z,5.24
2022-12-16T19:01:23.662Z,6.21
2022-12-16T19:04:12.361Z,6.78
2022-12-16T19:07:00.970Z,5.13
2022-12-16T19:09:49.759Z,4.08
2022-12-16T19:12:37.658Z,5.12
2022-12-16T19:15:26.899Z,6.10
2022-12-16T19:18:15.399Z,6.26
2022-12-16T19:21:03.962Z,4.50
2022-12-16T19:23:52.727Z,4.20
2022-12-16T19:26:43.223Z,5.80
2022-12-16T19:29:31.349Z,5.59
2022-12-16T19:32:20.419Z,4.17
2022-12-16T19:35:08.838Z,4.72
2022-12-16T19:37:57.128Z,5.75
2022-12-16T19:40:45.515Z,4.82
2022-12-16T19:43:34.594Z,3.68
2022-12-16T19:46:23.159Z,4.33
2022-12-16T19:49:12.539Z,5.87
2022-12-16T19:52:00.867Z,4.82
2022-12-16T19:54:49.337Z,3.44
2022-12-16T19:57:37.678Z,4.37
2022-12-16T20:00:27.864Z,5.54
2022-12-16T20:03:16.214Z,5.54
2022-12-16T20:06:04.749Z,3.87
2022-12-16T20:08:52.919Z,3.25
2022-12-16T20:11:39.104Z,4.51
2022-12-16T20:14:27.337Z,5.54
2022-12-16T20:17:15.871Z,4.59
2022-12-16T20:20:04.140Z,3.29
2022-12-16T20:22:53.224Z,4.56
2022-12-16T20:25:44.816Z,4.91
2022-12-16T20:28:33.025Z,3.39
2022-12-16T20:31:21.524Z,4.00
2022-12-16T20:34:13.646Z,5.24
2022-12-16T20:37:01.690Z,5.51
2022-12-16T20:42:58.676Z,3.79
2022-12-16T20:45:46.211Z,4.78
2022-12-16T20:48:34.976Z,5.62
2022-12-16T20:51:26.813Z,4.82
2022-12-16T20:54:15.330Z,3.58
2022-12-16T20:57:05.959Z,4.91
2022-12-16T20:59:55.376Z,4.97
2022-12-16T21:02:44.688Z,3.69
2022-12-16T21:05:32.977Z,4.26
2022-12-16T21:08:21.492Z,5.39
2022-12-16T21:11:10.000Z,5.45
2022-12-16T21:13:58.383Z,3.64
2022-12-16T21:16:46.489Z,3.50
2022-12-16T21:19:34.381Z,5.06
2022-12-16T21:22:22.965Z,5.07
2022-12-16T21:25:13.879Z,3.46
2022-12-16T21:28:02.115Z,2.86
2022-12-16T21:30:50.814Z,4.24
2022-12-16T21:33:40.244Z,5.24
2022-12-16T21:36:29.027Z,5.32
2022-12-16T21:39:17.760Z,3.92
2022-12-16T21:42:06.362Z,3.37
2022-12-16T21:44:56.231Z,4.55
2022-12-16T21:47:44.698Z,5.84
2022-12-16T21:50:33.204Z,4.31
2022-12-16T21:53:21.774Z,3.32
2022-12-16T21:56:12.485Z,4.23
2022-12-16T21:59:00.805Z,5.26
2022-12-16T22:01:49.084Z,3.73
2022-12-16T22:04:37.907Z,3.25
2022-12-16T22:07:26.341Z,5.09
2022-12-16T22:10:14.889Z,3.79
2022-12-16T22:13:03.078Z,2.71
2022-12-16T22:15:51.861Z,4.35
2022-12-16T22:18:40.541Z,5.38
2022-12-16T22:21:29.510Z,3.75
2022-12-16T22:24:17.539Z,3.34
2022-12-16T22:27:05.823Z,4.37
2022-12-16T22:29:53.765Z,5.46
2022-12-16T22:32:48.527Z,4.55
2022-12-16T22:35:37.027Z,3.18
2022-12-16T22:38:25.513Z,4.04
2022-12-16T22:41:14.369Z,5.29
2022-12-16T22:44:02.584Z,4.28
2022-12-16T22:46:50.591Z,3.16
2022-12-16T22:49:38.755Z,4.15
2022-12-16T22:52:27.100Z,5.25
2022-12-16T22:55:15.489Z,5.82
2022-12-16T22:58:03.831Z,5.07
2022-12-16T23:00:52.256Z,3.59
2022-12-16T23:03:40.229Z,2.91
2022-12-16T23:06:29.117Z,4.30
2022-12-16T23:09:17.441Z,5.40
2022-12-16T23:12:06.211Z,4.57
2022-12-16T23:14:54.172Z,3.03
2022-12-16T23:17:42.144Z,2.53
2022-12-16T23:20:31.076Z,3.82
2022-12-16T23:23:19.855Z,5.12
2022-12-16T23:26:15.115Z,5.11
2022-12-16T23:29:03.827Z,3.56
2022-12-16T23:31:52.263Z,2.79
2022-12-16T23:34:45.500Z,4.04
2022-12-16T23:37:34.814Z,5.16
2022-12-16T23:40:23.768Z,5.47
2022-12-16T23:43:12.432Z,3.70
2022-12-16T23:46:01.385Z,2.79
2022-12-16T23:48:49.872Z,4.15
2022-12-16T23:51:38.029Z,5.16
2022-12-16T23:54:26.316Z,5.00
2022-12-16T23:57:14.913Z,3.49
